< Cyclone 202208 2022 Season Cyclone 202216 >
Cyclone 202210 (Tiffany)
General InformationTrack Information on Google MapsDetailed Wind InformationList of All Images || ResourceGoogle EarthGE AnimationAtom FeedGeoJSON
Detalied Best Track (Time Zone = UTC)
Year Month Day Hour Lat. Long. Pressure (hPa) Wind (kt) Class Image Chart
2022 1 8 00 -11.8 147.5 1005 25 2 Image --
2022 1 8 06 -12.7 147.8 1004 25 2 Image --
2022 1 8 12 -13.1 147.9 1004 30 2 Image --
2022 1 8 18 -13.6 147.9 1002 30 2 Image --
2022 1 9 00 -13.9 147.1 1000 30 2 Image --
2022 1 9 06 -14.0 146.7 995 40 3 Image --
2022 1 9 12 -14.0 145.9 992 50 4 Image --
2022 1 9 18 -14.0 144.9 990 50 4 Image --
2022 1 9 21 -14.0 144.5 991 55 4 Image --
2022 1 10 00 -14.1 144.2 992 55 4 Image --
2022 1 10 03 -14.3 144.0 993 45 3 Image --
2022 1 10 06 -14.5 143.7 994 35 3 Image --
2022 1 10 12 -14.5 142.8 1003 30 2 Image --
2022 1 10 18 -14.4 141.5 1002 30 2 Image --
2022 1 11 00 -14.4 141.1 1000 35 3 Image --
2022 1 11 06 -15.0 139.7 998 35 3 Image --
2022 1 11 12 -14.8 138.2 995 50 4 Image --
2022 1 11 18 -14.7 136.7 992 50 4 Image --
2022 1 12 00 -14.5 135.5 988 50 4 Image --
2022 1 12 06 -14.4 133.7 992 35 3 Image --
2022 1 12 12 -14.8 132.6 998 30 2 Image --
2022 1 12 18 -15.0 131.6 1000 20 2 Image --
2022 1 13 00 -15.3 130.5 1002 15 2 Image --
2022 1 13 06 -15.4 129.4 1000 15 2 Image --
2022 1 13 12 -15.7 127.9 1000 15 2 Image --
2022 1 13 18 -15.9 126.8 1000 15 2 Image --
2022 1 14 00 -16.1 126.4 1000 15 2 Image --
2022 1 14 06 -16.7 125.7 999 15 2 Image --
2022 1 14 12 -17.0 125.4 998 15 2 Image --
2022 1 14 18 -17.3 125.1 998 15 2 Image --
2022 1 15 00 -17.8 125.0 997 15 2 Image --
2022 1 15 06 -18.7 124.8 997 20 2 Image --
2022 1 15 12 -19.6 125.0 998 20 2 Image --
2022 1 15 18 -20.9 125.6 998 20 2 Image --
2022 1 16 00 -21.7 126.3 992 25 2 Image --
2022 1 16 06 -23.2 127.3 992 25 2 Image --
2022 1 16 12 -24.0 127.9 992 25 2 Image --
2022 1 16 18 -24.6 128.4 992 25 2 Image --
2022 1 17 00 -25.2 129.0 992 30 2 Image --
2022 1 17 06 -25.9 129.9 992 30 2 Image --
< Cyclone 202208 2022 Season Cyclone 202216 >

Help